Latest Weather Observations for Sydney Airport

IDN60801

Issued at 6:03 am EST Friday 14 June 2024 (issued every 10 minutes, with the page automatically refreshed every 10 minutes)

About weather observations | Map of weather stations | Latest weather observations for NSW | Other Formats
Station Details ID: 066037 Name: SYDNEY AIRPORT AMO Lat: -33.95 Lon: 151.17 Height: 6.0 m
Data from the previous 72 hours. | See also: Recent months at Sydney Airport
Date/Time
EST
Temp
°C
App
Temp
°C
Dew
Point
°C
Rel
Hum
%
Delta-T
°C
Wind Press
QNH
hPa
Press
MSL
hPa
Rain since
9am
mm
Dir  Spd
km/h
Gust
km/h
Spd
kts
Gust
kts
14/05:30am 10.2 7.2 6.0 75 1.9 WNW 11 13 6 7 1019.2 1019.2 0.0
14/05:00am 10.2 6.4 5.8 74 2.0 W 15 17 8 9 1019.3 1019.3 0.0
14/04:30am 10.6 6.8 6.0 73 2.1 WNW 15 19 8 10 1019.3 1019.3 0.0
14/04:00am 10.3 6.1 5.9 74 2.0 WSW 17 19 9 10 1019.4 1019.4 0.0
14/03:30am 10.1 5.5 5.7 74 2.0 W 19 22 10 12 1019.5 1019.5 0.0
14/03:00am 10.2 5.4 5.8 74 2.0 W 20 24 11 13 1019.6 1019.6 0.0
14/02:30am 10.0 5.4 5.8 75 1.9 WNW 19 26 10 14 1019.7 1019.7 0.0
14/02:00am 10.1 6.4 6.1 76 1.8 WNW 15 17 8 9 1019.6 1019.6 0.0
14/01:30am 10.2 6.9 6.2 76 1.9 WNW 13 15 7 8 1019.7 1019.7 0.0
14/01:00am 11.0 8.1 6.6 74 2.1 WSW 11 15 6 8 1019.9 1019.9 0.0
14/12:30am 11.5 7.5 6.8 73 2.2 WSW 17 28 9 15 1020.0 1020.0 0.0
14/12:00am 10.8 7.1 6.4 74 2.1 W 15 19 8 10 1020.2 1020.2 0.0
 
Date/Time
EST
Temp
°C
App
Temp
°C
Dew
Point
°C
Rel
Hum
%
Delta-T
°C
Wind Press
QNH
hPa
Press
MSL
hPa
Rain since
9am
mm
Dir  Spd
km/h
Gust
km/h
Spd
kts
Gust
kts
13/11:30pm 10.8 6.7 6.2 73 2.1 W 17 24 9 13 1020.5 1020.5 0.0
13/11:00pm 11.0 6.9 6.0 71 2.3 W 17 20 9 11 1020.5 1020.5 0.0
13/10:30pm 11.2 7.1 6.1 71 2.4 W 17 19 9 10 1020.9 1020.9 0.0
13/10:00pm 12.2 8.1 6.3 67 2.8 WSW 17 20 9 11 1020.7 1020.7 0.0
13/09:30pm 12.6 8.5 6.2 65 3.0 WSW 17 39 9 21 1020.8 1020.8 0.0
13/09:00pm 12.3 7.7 5.5 63 3.1 WSW 19 20 10 11 1020.9 1020.9 0.0
13/08:30pm 12.4 7.5 5.3 62 3.3 WSW 20 24 11 13 1021.0 1021.0 0.0
13/08:00pm 12.6 8.0 5.5 62 3.3 WSW 19 30 10 16 1020.9 1020.9 0.0
13/07:30pm 12.7 8.5 5.8 63 3.2 WSW 17 19 9 10 1020.6 1020.6 0.0
13/07:00pm 13.1 9.0 6.0 62 3.3 WSW 17 20 9 11 1020.7 1020.7 0.0
13/06:30pm 13.5 9.3 5.9 60 3.6 WSW 17 22 9 12 1020.5 1020.5 0.0
13/06:00pm 13.5 8.7 5.4 58 3.8 WSW 20 26 11 14 1020.5 1020.5 0.0
13/05:30pm 14.0 9.9 6.4 60 3.6 WSW 17 22 9 12 1020.3 1020.3 0.0
13/05:00pm 14.1 9.5 6.5 60 3.6 SW 20 26 11 14 1020.1 1020.1 0.0
13/04:30pm 14.4 9.9 7.0 61 3.6 SW 20 26 11 14 1020.1 1020.1 0.0
13/04:00pm 14.6 10.8 7.4 62 3.5 SSW 17 22 9 12 1019.5 1019.5 0.0
13/03:30pm 14.8 10.1 7.8 63 3.5 SSW 22 35 12 19 1019.7 1019.7 0.0
13/03:00pm 14.9 9.9 7.9 63 3.5 SSW 24 32 13 17 1019.7 1019.7 0.0
13/02:30pm 15.0 9.6 8.0 63 3.5 SSW 26 30 14 16 1019.4 1019.4 0.0
13/02:00pm 15.1 10.2 8.3 64 3.4 SSW 24 30 13 16 1019.1 1019.1 0.0
13/01:30pm 15.2 10.1 7.7 61 3.7 SSW 24 30 13 16 1019.3 1019.3 0.0
13/01:00pm 15.2 10.1 6.0 54 4.4 SSW 22 28 12 15 1019.2 1019.2 0.0
13/12:30pm 15.3 11.1 5.5 52 4.7 SW 17 28 9 15 1019.5 1019.5 0.0
13/12:00pm 15.7 11.5 5.9 52 4.7 W 17 20 9 11 1019.6 1019.6 0.0
13/11:30am 14.6 9.7 4.9 52 4.5 WSW 20 37 11 20 1020.1 1020.1 0.0
13/11:00am 13.6 8.5 3.9 52 4.4 WSW 20 33 11 18 1020.4 1020.4 0.0
13/10:30am 13.7 7.8 3.8 51 4.5 WSW 24 33 13 18 1020.7 1020.7 0.0
13/10:00am 12.7 7.1 3.6 54 4.1 WSW 22 32 12 17 1021.0 1021.0 0.0
13/09:30am 12.1 6.2 3.9 57 3.7 WSW 24 32 13 17 1020.8 1020.8 0.0
13/09:00am 11.6 5.9 3.1 56 3.7 WSW 22 30 12 16 1020.2 1020.2 0.0
13/08:30am 11.4 6.2 2.4 54 3.9 W 19 24 10 13 1020.2 1020.2 0.0
13/08:00am 9.7 4.2 2.1 59 3.2 WSW 20 26 11 14 1020.2 1020.2 0.0
13/07:30am 9.4 2.8 1.8 59 3.2 WSW 26 33 14 18 1020.7 1020.7 0.0
13/07:00am 9.1 2.5 1.8 60 3.0 WSW 26 32 14 17 1020.6 1020.6 0.0
13/06:30am 9.0 1.5 1.4 59 3.1 WSW 30 39 16 21 1020.1 1020.1 0.0
13/06:00am 9.1 1.6 1.5 59 3.1 WSW 30 41 16 22 1019.7 1019.7 0.0
13/05:30am 9.0 1.9 1.2 58 3.2 WSW 28 33 15 18 1019.1 1019.1 0.0
13/05:00am 9.0 2.2 1.0 57 3.2 WSW 26 32 14 17 1018.7 1018.7 0.0
13/04:30am 9.1 1.5 0.8 56 3.4 WSW 30 35 16 19 1018.5 1018.5 0.0
13/04:00am 9.3 2.1 0.5 54 3.5 W 28 35 15 19 1018.6 1018.6 0.0
13/03:30am 9.3 2.1 0.7 55 3.5 WSW 28 33 15 18 1018.5 1018.5 0.0
13/03:00am 9.2 1.6 0.4 54 3.5 WSW 30 35 16 19 1018.4 1018.4 0.0
13/02:30am 9.5 2.3 0.4 53 3.7 WSW 28 33 15 18 1018.8 1018.8 0.0
13/02:00am 9.7 2.8 0.1 51 3.8 WSW 26 32 14 17 1018.7 1018.7 0.0
13/01:30am 9.4 3.7 0.3 53 3.7 W 20 26 11 14 1018.7 1018.7 0.0
13/01:00am 9.7 2.4 0.1 51 3.8 WSW 28 33 15 18 1018.7 1018.7 0.0
13/12:30am 10.4 3.1 -0.1 48 4.2 WSW 28 39 15 21 1018.6 1018.6 0.0
13/12:00am 10.2 2.8 -0.6 47 4.3 SW 28 33 15 18 1018.4 1018.4 0.0
 
Date/Time
EST
Temp
°C
App
Temp
°C
Dew
Point
°C
Rel
Hum
%
Delta-T
°C
Wind Press
QNH
hPa
Press
MSL
hPa
Rain since
9am
mm
Dir  Spd
km/h
Gust
km/h
Spd
kts
Gust
kts
12/11:30pm 10.5 4.6 -0.6 46 4.4 WSW 20 26 11 14 1018.5 1018.5 0.0
12/11:00pm 10.4 3.7 -1.0 45 4.5 WSW 24 28 13 15 1018.7 1018.7 0.0
12/10:30pm 10.8 3.4 -0.9 44 4.6 WSW 28 35 15 19 1018.4 1018.4 0.0
12/10:00pm 11.0 3.6 -0.8 44 4.7 SW 28 35 15 19 1018.4 1018.4 0.0
12/09:47pm 11.3 3.5 -1.1 42 4.9 SW 30 48 16 26 1018.2 1018.2 0.0
12/09:30pm 11.7 3.9 -1.1 41 5.1 SW 30 35 16 19 1017.9 1017.9 0.0
12/09:00pm 12.0 4.8 0.8 46 4.7 SW 28 32 15 17 1017.5 1017.5 0.0
12/08:30pm 11.8 4.9 0.3 45 4.7 SW 26 30 14 16 1017.2 1017.2 0.0
12/08:00pm 12.1 5.7 1.1 47 4.6 WSW 24 30 13 16 1016.7 1016.7 0.0
12/07:30pm 13.2 5.4 3.0 50 4.5 SSW 33 44 18 24 1016.2 1016.2 0.0
12/07:00pm 13.3 6.8 6.4 63 3.3 SSW 30 35 16 19 1015.5 1015.5 0.0
12/06:30pm 12.8 8.5 7.9 72 2.4 SW 20 24 11 13 1015.1 1015.1 0.0
12/06:00pm 13.0 9.4 8.3 73 2.3 SW 17 22 9 12 1014.6 1014.6 0.0
12/05:30pm 13.3 9.8 8.6 73 2.4 SW 17 22 9 12 1014.2 1014.2 0.0
12/05:00pm 13.1 9.8 8.2 72 2.4 SSW 15 19 8 10 1013.7 1013.7 0.0
12/04:30pm 13.4 9.5 8.7 73 2.4 SSW 19 24 10 13 1013.1 1013.1 0.0
12/04:00pm 13.0 9.4 8.3 73 2.3 SSW 17 20 9 11 1012.4 1012.4 0.0
12/03:30pm 12.9 8.7 8.4 74 2.2 SSW 20 26 11 14 1011.8 1011.8 0.0
12/03:00pm 12.9 5.5 8.4 74 2.2 S 37 48 20 26 1011.3 1011.3 0.0
12/02:30pm 13.7 5.2 8.5 71 2.6 S 43 59 23 32 1010.5 1010.5 0.0
12/02:00pm 14.1 4.7 10.1 77 2.1 S 50 63 27 34 1009.6 1009.6 0.0
12/01:39pm 14.6 4.6 9.4 71 2.7 S 52 70 28 38 1009.0 1009.0 0.0
12/01:34pm 15.9 6.6 7.7 58 4.1 SSW 46 65 25 35 1009.2 1009.2 0.0
12/01:32pm 17.4 7.9 4.7 43 6.0 SW 44 63 24 34 1008.9 1008.9 0.0
12/01:30pm 17.6 8.3 4.9 43 6.1 SW 43 59 23 32 1008.7 1008.7 0.0
12/01:00pm 18.1 8.3 3.2 37 6.9 WSW 44 57 24 31 1008.3 1008.3 0.0
12/12:30pm 18.1 9.9 4.7 41 6.4 WSW 37 57 20 31 1008.2 1008.2 0.0
12/12:00pm 18.3 9.0 4.8 41 6.5 WSW 43 69 23 37 1007.9 1007.9 0.0
12/11:32am 18.2 7.1 4.7 41 6.5 W 52 70 28 38 1007.7 1007.7 0.0
12/11:30am 18.1 6.7 4.7 41 6.4 W 54 70 29 38 1007.6 1007.6 0.0
12/11:01am 18.3 7.6 4.5 40 6.6 W 50 89 27 48 1007.6 1007.6 0.0
12/11:00am 18.4 8.0 4.2 39 6.8 W 48 61 26 33 1007.6 1007.6 0.0
12/10:30am 18.0 8.1 4.9 42 6.3 W 46 61 25 33 1008.4 1008.4 0.0
12/10:20am 17.8 9.4 5.4 44 6.0 W 39 56 21 30 1008.8 1008.8 0.0
12/10:00am 17.2 12.6 5.5 46 5.7 WSW 19 37 10 20 1009.1 1009.1 0.0
12/09:30am 17.0 14.1 6.5 50 5.2 W 11 15 6 8 1009.2 1009.2 0.0
12/09:00am 15.3 11.3 6.8 57 4.2 SW 17 24 9 13 1009.3 1009.3 0.0
12/08:30am 15.1 11.6 5.6 53 4.5 W 13 19 7 10 1008.8 1008.8 0.0
12/08:00am 15.7 12.5 7.0 56 4.3 WNW 13 17 7 9 1008.6 1008.6 0.0
12/07:30am 14.2 11.5 7.3 63 3.4 W 11 17 6 9 1008.6 1008.6 0.0
12/07:00am 13.0 10.8 7.7 70 2.6 W 9 13 5 7 1008.7 1008.7 0.0
12/06:30am 11.3 8.9 7.2 76 2.0 WNW 9 15 5 8 1008.6 1008.6 0.0
12/06:00am 12.3 10.8 8.6 78 1.8 W 6 9 3 5 1008.6 1008.6 0.0
12/05:30am 12.1 10.9 8.2 77 1.9 NE 4 7 2 4 1008.4 1008.4 0.0
12/05:00am 11.8 10.5 7.5 75 2.1 NNW 4 7 2 4 1008.6 1008.6 0.0
12/04:30am 12.4 10.5 7.5 72 2.4 N 7 9 4 5 1008.3 1008.3 0.0
12/04:00am 12.4 10.2 7.7 73 2.3 NNW 9 11 5 6 1008.7 1008.7 0.0
12/03:30am 12.7 10.1 7.8 72 2.4 N 11 13 6 7 1009.2 1009.2 0.0
12/03:00am 13.1 11.0 8.2 72 2.4 WNW 9 13 5 7 1009.5 1009.5 0.0
12/02:30am 13.5 10.1 7.7 68 2.9 NW 15 17 8 9 1009.5 1009.5 0.0
12/02:00am 13.6 10.7 8.0 69 2.8 NNW 13 15 7 8 1010.0 1010.0 0.0
12/01:30am 14.0 12.2 7.3 64 3.3 NNW 6 9 3 5 1010.2 1010.2 0.0
12/01:00am 14.1 12.1 7.2 63 3.4 NNE 7 11 4 6 1010.2 1010.2 0.0
12/12:30am 15.0 13.3 7.5 61 3.7 NW 6 11 3 6 1010.4 1010.4 0.0
12/12:00am 14.5 12.5 7.3 62 3.5 WNW 7 11 4 6 1010.8 1010.8 0.0
 
Date/Time
EST
Temp
°C
App
Temp
°C
Dew
Point
°C
Rel
Hum
%
Delta-T
°C
Wind Press
QNH
hPa
Press
MSL
hPa
Rain since
9am
mm
Dir  Spd
km/h
Gust
km/h
Spd
kts
Gust
kts
11/11:30pm 15.5 11.6 7.0 57 4.2 WNW 17 20 9 11 1010.9 1010.9 0.0
11/11:00pm 16.2 10.1 6.6 53 4.7 NW 28 37 15 20 1010.6 1010.6 0.0
11/10:30pm 16.1 10.1 7.1 55 4.5 NW 28 35 15 19 1010.5 1010.5 0.0
11/10:00pm 16.2 11.0 7.2 55 4.5 NW 24 30 13 16 1011.1 1011.1 0.0
11/09:30pm 16.8 11.6 7.2 53 4.8 NW 24 35 13 19 1011.3 1011.3 0.0
11/09:00pm 16.6 10.6 7.0 53 4.8 NW 28 35 15 19 1011.0 1011.0 0.0
11/08:30pm 16.7 9.0 7.1 53 4.8 NW 37 50 20 27 1010.7 1010.7 0.0
11/08:00pm 16.4 10.0 7.1 54 4.6 NW 30 39 16 21 1011.6 1011.6 0.0
11/07:30pm 16.1 11.3 7.3 56 4.4 NNW 22 32 12 17 1012.4 1012.4 0.0
11/07:00pm 15.6 11.8 7.4 58 4.1 NNW 17 22 9 12 1013.2 1013.2 0.0
11/06:30pm 15.4 11.0 6.7 56 4.2 NNW 19 22 10 12 1013.4 1013.4 0.0
11/06:00pm 15.7 12.1 6.7 55 4.4 NNW 15 20 8 11 1013.6 1013.6 0.0
11/05:30pm 15.8 12.4 7.8 59 4.0 NW 15 19 8 10 1014.0 1014.0 0.0
11/05:00pm 15.9 12.4 7.4 57 4.2 NW 15 17 8 9 1014.1 1014.1 0.0
11/04:30pm 14.3 11.2 8.9 70 2.7 W 15 20 8 11 1014.4 1014.4 0.0
11/04:00pm 14.6 10.9 8.1 65 3.2 SW 17 20 9 11 1014.5 1014.5 0.0
11/03:30pm 15.7 13.1 6.2 53 4.6 WNW 9 15 5 8 1014.1 1014.1 0.0
11/03:00pm 16.6 13.1 5.6 48 5.3 NW 13 15 7 8 1014.0 1014.0 0.0
11/02:30pm 16.7 12.5 5.9 49 5.2 NW 17 24 9 13 1014.2 1014.2 0.0
11/02:00pm 16.7 12.9 5.6 48 5.3 NW 15 20 8 11 1014.7 1014.7 0.0
11/01:30pm 16.1 12.8 6.5 53 4.7 NW 13 15 7 8 1015.2 1015.2 0.0
11/01:00pm 14.3 10.9 7.6 64 3.3 WNW 15 19 8 10 1016.2 1016.2 0.0
11/12:30pm 14.5 10.6 7.3 62 3.5 WNW 17 20 9 11 1016.2 1016.2 0.0
11/12:00pm 15.1 10.5 6.4 56 4.2 WNW 20 28 11 15 1017.3 1017.3 0.0
11/11:30am 15.7 11.6 6.2 53 4.6 NW 17 24 9 13 1017.2 1017.2 0.0
11/11:00am 14.9 10.9 6.7 58 4.0 NW 17 26 9 14 1018.3 1018.3 0.0
11/10:30am 13.6 10.0 6.7 63 3.3 NW 15 19 8 10 1018.8 1018.8 0.0
11/10:00am 13.0 8.9 6.1 63 3.3 NW 17 22 9 12 1019.6 1019.6 0.0
11/09:30am 12.5 8.8 6.3 66 2.9 NW 15 19 8 10 1020.1 1020.1 0.0
11/09:00am 11.0 7.2 5.7 70 2.4 NW 15 19 8 10 1020.2 1020.2 0.0
11/08:30am 10.2 6.4 5.8 74 2.0 NW 15 19 8 10 1020.4 1020.4 0.0
11/08:00am 10.1 6.4 6.1 76 1.8 NW 15 19 8 10 1020.4 1020.4 0.0
11/07:30am 8.9 4.8 6.0 82 1.3 NW 17 20 9 11 1020.8 1020.8 0.0
11/07:00am 8.7 4.6 6.3 85 1.1 NW 17 20 9 11 1021.0 1021.0 0.0
11/06:30am 8.9 4.5 6.5 85 1.1 NW 19 22 10 12 1021.0 1021.0 0.0

Other formats

Comma delimited format used in spreadsheet applications
http://www.bom.gov.au/fwo/IDN60801/IDN60801.94767.axf

JavaScript Object Notation format (JSON) in row-major order
http://www.bom.gov.au/fwo/IDN60801/IDN60801.94767.json

Data quality

Most of these data are generated automatically and are frequently updated. Quality checks on data are not normally performed. It is possible for incorrect values to appear. Refer to information at About Latest Weather Observations and please check the disclaimer before using these data.